Poineer Square, Washington
Current Conditions -  °F | °C
As of 12:53 PM on Thursday 20 Nov 2014 (Local Time) from KBFI Reporting Station
Overcast Overcast  
Wind Chill: 53°   Ceiling: 4600
Heat Index: 53°   Visibility: 10mi
Dew Point: 45°   Wind: 5mph
Humidity: 74%   Direction: 120°ESE
Pressure: 29.96"   Gusts: NA
Location:  47.6024°N, 122.326°W
Report Text: KBFI 202053Z 12004KT 10SM OVC046 12/07 A2996 RMK AO2 SLP146 T01170072 58006
Loading
Personal Weather Stations






























Interactive Weather Map New forecast layout! Learn more

10-Day Weather Forecast

Advertisements
Track Severe Weather on mobile